Terminal Aerodrome Forecast
Issued by NWS

Home | Current Version | Previous Version | Text Only | Print | Product List | Glossary On
Versions: 1 2 3 4 5 6 7 8 9 10 11 12 13 14 15 16 17 18 19 20 21 22 23 24
000
FTUS43 KSGF 181100
TAFJLN
TAF
KJLN 181120Z 1812/1912 13007KT 6SM -SHRA BR VCTS BKN040CB OVC060
      TEMPO 1815/1819 3SM TSRA BR OVC015CB
     FM182200 19007KT P6SM VCTS SCT020 OVC040CB
     FM190000 14005KT P6SM -SHRA VCTS OVC050CB=

USA.gov is the U.S. government's official web portal to all federal, state and local government web resources and services.